Pagrindinis puslapis
METAR-TAF:

METAR-TAF

Oro uostai :

Cape Romanzof, Aliaska, Jungtinės Amerikos Valstijos

platuma: 61-47N, ilguma: 166-02W, Aukštis: 139 m

Dabartinis oras

Ataskaita buvo paskelbta 35 minutes, ne 00:55 UTC
Vėjas 8 kt iš Vakarų
Temperatūra 7°C
Drėgmė 87%
Slėgis 1016 hPa
Matomumas: 16.1 km
Su prošvaistėmis ne aukštis 1000 ft

METAR: PACZ 050055Z AUTO 27008KT 10SM BKN010 07/05 A2999 RMK AO2 SLP160 T00720051

Laikas: 17:30 (01:30 UTC)


TAF: trūkstamas

Orai ataskaitas ir orų prognozės (METAR, TAF).

turimą stotys yra geltonos ir raudonos taškus žemėlapyje.

Perkelti pele per norėdami pamatyti stoties vardą.

Tada spustelėkite, norėdami matyti oro stebėjimo ir prognozės.

Norėdami pakeisti žemėlapį: spustelėkite ant žalios mygtukų su juodo kryžiaus žemyn,; žalią mygtuką su brūkšneliu, jei norite nutolinti; arba žalių rodyklių gretimoms žemėlapius.


METAR-TAF: